Terminal Aerodrome Forecast
Issued by NWS Sterling, VA

Current Version | Previous Version | Graphics & Text | Print | Product List | Glossary On
Versions: 1 2 3 4 5 6 7 8 9 10 11 12 13 14 15 16 17 18 19 20 21 22 23 24 25 26 27 28 29
290
FTUS41 KLWX 161457 AAA
TAFDCA
TAF AMD
KDCA 161457Z 1615/1718 19007KT P6SM -RA OVC050
     FM161700 29008KT P6SM -SHRA SCT025 OVC045
     FM161900 32014G23KT 6SM -SHRA BR SCT025 OVC040
     FM162100 32016G26KT P6SM OVC035
     FM170400 34009KT P6SM FEW250=

USA.gov is the U.S. government's official web portal to all federal, state and local government web resources and services.